createdAt,value
2018-04-24T00:00:15.577Z,87.50
2018-04-24T00:02:43.012Z,87.50
2018-04-24T00:05:10.441Z,87.50
2018-04-24T00:07:38.659Z,87.30
2018-04-24T00:10:06.868Z,88.00
2018-04-24T00:12:34.317Z,87.40
2018-04-24T00:15:01.765Z,87.30
2018-04-24T00:17:29.216Z,87.40
2018-04-24T00:19:56.676Z,87.40
2018-04-24T00:22:24.122Z,87.40
2018-04-24T00:24:51.565Z,87.50
2018-04-24T00:27:19.019Z,87.50
2018-04-24T00:29:46.466Z,87.50
2018-04-24T00:32:13.928Z,87.60
2018-04-24T00:34:41.381Z,87.50
2018-04-24T00:37:08.822Z,88.20
2018-04-24T00:39:36.296Z,87.60
2018-04-24T00:42:03.734Z,87.50
2018-04-24T00:44:31.168Z,87.50
2018-04-24T00:46:59.404Z,87.60
2018-04-24T00:49:26.844Z,87.60
2018-04-24T00:51:54.277Z,87.60
2018-04-24T00:54:21.740Z,87.50
2018-04-24T00:56:49.173Z,87.50
2018-04-24T00:59:16.628Z,87.40
2018-04-24T01:01:44.094Z,87.40
2018-04-24T01:04:11.533Z,87.30
2018-04-24T01:06:39.816Z,88.00
2018-04-24T01:09:07.228Z,87.40
2018-04-24T01:11:34.691Z,87.60
2018-04-24T01:14:02.149Z,87.40
2018-04-24T01:16:29.594Z,87.50
2018-04-24T01:18:57.039Z,87.50
2018-04-24T01:21:24.508Z,87.60
2018-04-24T01:23:51.944Z,87.60
2018-04-24T01:26:19.379Z,87.80
2018-04-24T01:28:46.841Z,87.80
2018-04-24T01:31:14.275Z,87.80
2018-04-24T01:33:41.731Z,87.80
2018-04-24T01:36:09.201Z,87.80
2018-04-24T01:38:36.644Z,87.80
2018-04-24T01:41:04.105Z,87.90
2018-04-24T01:43:31.556Z,87.90
2018-04-24T01:45:59.013Z,88.10
2018-04-24T01:48:26.449Z,88.20
2018-04-24T01:50:54.684Z,88.30
2018-04-24T01:53:22.172Z,88.30
2018-04-24T01:55:50.388Z,88.40
2018-04-24T01:58:17.849Z,88.40
2018-04-24T02:00:45.305Z,88.30
2018-04-24T02:03:12.779Z,88.40
2018-04-24T02:05:40.220Z,88.40
2018-04-24T02:08:08.428Z,88.40
2018-04-24T02:10:35.867Z,88.50
2018-04-24T02:13:03.308Z,88.40
2018-04-24T02:15:30.764Z,88.50
2018-04-24T02:17:58.205Z,88.50
2018-04-24T02:20:25.644Z,88.70
2018-04-24T02:22:53.109Z,88.80
2018-04-24T02:25:20.550Z,88.90
2018-04-24T02:27:47.998Z,89.00
2018-04-24T02:30:16.212Z,89.20
2018-04-24T02:32:43.650Z,89.20
2018-04-24T02:35:11.088Z,89.20
2018-04-24T02:37:38.555Z,89.20
2018-04-24T02:40:05.992Z,89.30
2018-04-24T02:42:33.428Z,89.30
2018-04-24T02:45:01.645Z,89.40
2018-04-24T02:47:29.087Z,89.40
2018-04-24T02:49:56.529Z,89.40
2018-04-24T02:52:23.985Z,89.40
2018-04-24T02:54:52.189Z,89.60
2018-04-24T02:57:19.624Z,89.50
2018-04-24T02:59:47.081Z,89.50
2018-04-24T03:02:14.516Z,89.50
2018-04-24T03:04:42.736Z,89.50
2018-04-24T03:07:10.199Z,89.50
2018-04-24T03:09:37.636Z,89.40
2018-04-24T03:12:05.083Z,89.50
2018-04-24T03:14:32.621Z,89.50
2018-04-24T03:17:00.072Z,89.50
2018-04-24T03:19:27.514Z,89.50
2018-04-24T03:21:55.732Z,89.70
2018-04-24T03:24:23.172Z,89.60
2018-04-24T03:26:50.618Z,89.70
2018-04-24T03:29:18.074Z,89.60
2018-04-24T03:31:45.519Z,89.60
2018-04-24T03:34:13.716Z,89.70
2018-04-24T03:36:41.171Z,89.70
2018-04-24T03:39:08.607Z,89.60
2018-04-24T03:41:36.052Z,89.50
2018-04-24T03:44:04.282Z,89.30
2018-04-24T03:46:31.726Z,89.30
2018-04-24T03:48:59.165Z,89.20
2018-04-24T03:51:26.636Z,89.30
2018-04-24T03:53:54.083Z,89.70
2018-04-24T03:56:21.508Z,89.10
2018-04-24T03:58:49.742Z,89.20
2018-04-24T04:01:17.951Z,89.10
2018-04-24T04:03:46.167Z,89.20
2018-04-24T04:06:13.636Z,89.10
2018-04-24T04:08:41.074Z,89.10
2018-04-24T04:11:08.530Z,89.10
2018-04-24T04:13:35.987Z,89.00
2018-04-24T04:16:03.511Z,88.90
2018-04-24T04:18:42.646Z,88.90
2018-04-24T04:21:22.404Z,88.90
2018-04-24T04:24:02.617Z,88.90
2018-04-24T04:26:30.048Z,88.90
2018-04-24T04:28:58.508Z,88.90
2018-04-24T04:31:27.296Z,89.40
2018-04-24T04:33:54.724Z,88.90
2018-04-24T04:36:22.186Z,88.80
2018-04-24T04:38:49.706Z,88.80
2018-04-24T04:41:17.150Z,88.70
2018-04-24T04:43:44.589Z,89.20
2018-04-24T04:46:12.804Z,88.50
2018-04-24T04:48:41.012Z,88.70
2018-04-24T04:51:08.453Z,88.70
2018-04-24T04:53:35.932Z,88.60
2018-04-24T04:56:03.395Z,88.60
2018-04-24T04:58:30.817Z,88.60
2018-04-24T05:00:58.281Z,88.60
2018-04-24T05:03:25.725Z,88.50
2018-04-24T05:05:53.165Z,89.10
2018-04-24T05:08:20.752Z,88.50
2018-04-24T05:10:48.189Z,88.50
2018-04-24T05:13:16.394Z,88.70
2018-04-24T05:15:43.858Z,88.70
2018-04-24T05:18:11.293Z,88.70
2018-04-24T05:20:38.743Z,88.70
2018-04-24T05:23:06.196Z,88.90
2018-04-24T05:25:33.634Z,88.90
2018-04-24T05:28:01.847Z,89.00
2018-04-24T05:30:29.315Z,89.00
2018-04-24T05:32:56.754Z,89.00
2018-04-24T05:35:24.203Z,89.00
2018-04-24T05:37:51.664Z,89.00
2018-04-24T05:40:19.118Z,89.10
2018-04-24T05:42:46.552Z,89.10
2018-04-24T05:45:14.032Z,89.10
2018-04-24T05:47:41.453Z,89.10
2018-04-24T05:50:09.661Z,89.10
2018-04-24T05:52:37.114Z,89.20
2018-04-24T05:55:04.548Z,89.20
2018-04-24T05:57:31.988Z,89.30
2018-04-24T06:00:00.208Z,89.40
2018-04-24T06:02:27.658Z,89.40
2018-04-24T06:04:55.107Z,89.60
2018-04-24T06:07:22.568Z,89.70
2018-04-24T06:09:50.011Z,89.70
2018-04-24T06:12:17.453Z,89.70
2018-04-24T06:14:44.906Z,89.90
2018-04-24T06:17:12.348Z,90.00
2018-04-24T06:19:40.559Z,90.00
2018-04-24T06:22:08.019Z,90.00
2018-04-24T06:24:35.469Z,90.00
2018-04-24T06:27:02.896Z,90.30
2018-04-24T06:29:31.131Z,90.10
2018-04-24T06:31:58.627Z,90.10
2018-04-24T06:34:26.029Z,90.10
2018-04-24T06:36:53.502Z,90.10
2018-04-24T06:39:20.940Z,90.10
2018-04-24T06:41:48.401Z,90.20
2018-04-24T06:44:15.854Z,90.20
2018-04-24T06:46:43.293Z,90.20
2018-04-24T06:49:10.746Z,90.20
2018-04-24T06:51:38.191Z,90.20
2018-04-24T06:54:05.648Z,90.20
2018-04-24T06:56:33.104Z,90.20
2018-04-24T06:59:00.545Z,90.10
2018-04-24T07:01:27.979Z,90.10
2018-04-24T07:03:56.207Z,90.00
2018-04-24T07:06:23.671Z,90.00
2018-04-24T07:08:51.090Z,90.00
2018-04-24T07:11:18.554Z,89.90
2018-04-24T07:13:45.989Z,89.70
2018-04-24T07:16:13.438Z,89.40
2018-04-24T07:18:41.664Z,89.20
2018-04-24T07:21:09.880Z,89.00
2018-04-24T07:23:38.093Z,88.70
2018-04-24T07:26:05.532Z,88.70
2018-04-24T07:28:32.987Z,88.40
2018-04-24T07:31:00.422Z,87.90
2018-04-24T07:33:28.645Z,87.30
2018-04-24T07:35:56.088Z,87.30
2018-04-24T07:38:23.535Z,86.90
2018-04-24T07:40:51.010Z,86.40
2018-04-24T07:43:18.453Z,86.10
2018-04-24T07:45:45.888Z,85.80
2018-04-24T07:48:13.346Z,85.70
2018-04-24T07:50:40.784Z,85.60
2018-04-24T07:53:09.001Z,85.50
2018-04-24T07:55:36.456Z,85.50
2018-04-24T07:58:03.904Z,85.00
2018-04-24T08:00:31.357Z,84.90
2018-04-24T08:02:58.811Z,84.80
2018-04-24T08:05:26.254Z,84.50
2018-04-24T08:07:53.709Z,83.80
2018-04-24T08:10:21.161Z,81.80
2018-04-24T08:12:48.607Z,82.70
2018-04-24T08:15:16.809Z,81.50
2018-04-24T08:17:44.270Z,81.50
2018-04-24T08:20:11.714Z,80.80
2018-04-24T08:22:39.158Z,80.60
2018-04-24T08:25:06.640Z,80.10
2018-04-24T08:27:34.058Z,80.50
2018-04-24T08:30:01.517Z,80.20
2018-04-24T08:32:29.737Z,79.70
2018-04-24T08:34:57.176Z,79.60
2018-04-24T08:37:24.620Z,78.90
2018-04-24T08:39:52.089Z,78.70
2018-04-24T08:42:19.524Z,75.50
2018-04-24T08:44:46.973Z,77.20
2018-04-24T08:47:14.442Z,76.40
2018-04-24T08:49:41.864Z,76.50
2018-04-24T08:52:09.306Z,76.60
2018-04-24T08:54:36.761Z,76.40
2018-04-24T08:57:04.207Z,76.40
2018-04-24T08:59:31.650Z,77.90
2018-04-24T09:01:59.940Z,77.20
2018-04-24T09:04:27.309Z,78.00
2018-04-24T09:06:55.519Z,75.70
2018-04-24T09:09:22.975Z,75.70
2018-04-24T09:11:50.440Z,74.40
2018-04-24T09:14:17.869Z,74.30
2018-04-24T09:16:45.335Z,74.70
2018-04-24T09:19:12.782Z,74.50
2018-04-24T09:21:40.229Z,73.70
2018-04-24T09:24:08.457Z,72.00
2018-04-24T09:26:35.910Z,71.90
2018-04-24T09:29:03.349Z,71.90
2018-04-24T09:31:36.551Z,72.20
2018-04-24T09:34:03.992Z,71.70
2018-04-24T09:36:31.432Z,71.40
2018-04-24T09:38:58.923Z,71.10
2018-04-24T09:41:26.324Z,69.90
2018-04-24T09:43:54.612Z,69.30
2018-04-24T09:46:21.985Z,69.30
2018-04-24T09:48:49.437Z,67.30
2018-04-24T09:51:16.901Z,64.70
2018-04-24T09:53:44.328Z,65.10
2018-04-24T09:56:11.774Z,63.30
2018-04-24T09:58:39.246Z,62.40
2018-04-24T10:01:06.696Z,63.10
2018-04-24T10:03:34.134Z,64.00
2018-04-24T10:06:02.329Z,62.70
2018-04-24T10:08:29.781Z,62.70
2018-04-24T10:10:57.222Z,62.00
2018-04-24T10:13:25.571Z,64.10
2018-04-24T10:15:52.894Z,64.10
2018-04-24T10:18:20.334Z,64.50
2018-04-24T10:20:47.778Z,63.20
2018-04-24T10:23:15.225Z,63.70
2018-04-24T10:25:42.671Z,63.00
2018-04-24T10:28:10.879Z,62.50
2018-04-24T10:30:38.345Z,62.50
2018-04-24T10:33:05.778Z,62.00
2018-04-24T10:35:33.217Z,62.30
2018-04-24T10:38:01.452Z,62.50
2018-04-24T10:40:28.900Z,62.50
2018-04-24T10:42:56.342Z,62.80
2018-04-24T10:45:23.815Z,61.60
2018-04-24T10:47:51.261Z,59.70
2018-04-24T10:50:18.713Z,58.10
2018-04-24T10:52:46.152Z,57.70
2018-04-24T10:55:13.608Z,55.30
2018-04-24T10:57:41.047Z,56.30
2018-04-24T11:00:08.492Z,57.20
2018-04-24T11:02:35.930Z,57.90
2018-04-24T11:05:04.158Z,58.70
2018-04-24T11:07:31.602Z,58.60
2018-04-24T11:09:59.054Z,58.90
2018-04-24T11:12:26.508Z,58.90
2018-04-24T11:14:53.950Z,58.70
2018-04-24T11:17:21.404Z,58.60
2018-04-24T11:19:48.863Z,57.00
2018-04-24T11:22:16.296Z,56.10
2018-04-24T11:24:44.518Z,57.00
2018-04-24T11:27:11.971Z,57.00
2018-04-24T11:29:39.415Z,57.00
2018-04-24T11:32:06.877Z,56.70
2018-04-24T11:34:34.334Z,56.90
2018-04-24T11:37:01.787Z,55.80
2018-04-24T11:39:29.212Z,55.90
2018-04-24T11:41:57.432Z,56.80
2018-04-24T11:44:24.882Z,56.80
2018-04-24T11:46:52.330Z,56.40
2018-04-24T11:49:19.810Z,56.20
2018-04-24T11:51:47.242Z,56.50
2018-04-24T11:54:14.964Z,55.00
2018-04-24T11:56:43.203Z,55.50
2018-04-24T11:59:11.046Z,55.50
2018-04-24T12:01:38.585Z,55.40
2018-04-24T12:04:06.063Z,54.50
2018-04-24T12:06:33.522Z,55.00
2018-04-24T12:09:00.962Z,53.10
2018-04-24T12:11:28.416Z,53.20
2018-04-24T12:13:55.854Z,54.10
2018-04-24T12:16:23.297Z,54.30
2018-04-24T12:18:51.517Z,55.40
2018-04-24T12:21:18.954Z,55.50
2018-04-24T12:23:46.393Z,55.20
2018-04-24T12:26:13.842Z,55.30
2018-04-24T12:28:41.333Z,55.30
2018-04-24T12:31:08.778Z,54.90
2018-04-24T12:33:36.285Z,55.30
2018-04-24T12:36:03.725Z,55.10
2018-04-24T12:38:31.169Z,54.30
2018-04-24T12:40:58.633Z,54.80
2018-04-24T12:43:26.085Z,54.70
2018-04-24T12:45:53.527Z,55.10
2018-04-24T12:48:20.984Z,55.60
2018-04-24T12:50:48.423Z,55.90
2018-04-24T12:53:15.864Z,55.90
2018-04-24T12:55:43.338Z,56.10
2018-04-24T12:58:10.784Z,56.10
2018-04-24T13:00:38.216Z,55.20
2018-04-24T13:03:06.438Z,55.30
2018-04-24T13:05:33.889Z,55.40
2018-04-24T13:08:01.384Z,55.50
2018-04-24T13:10:28.821Z,54.60
2018-04-24T13:12:56.260Z,54.60
2018-04-24T13:15:23.733Z,54.10
2018-04-24T13:17:51.185Z,53.70
2018-04-24T13:20:18.634Z,53.70
2018-04-24T13:22:46.073Z,52.50
2018-04-24T13:25:13.546Z,52.60
2018-04-24T13:27:40.976Z,50.60
2018-04-24T13:30:08.421Z,52.00
2018-04-24T13:32:35.872Z,52.30
2018-04-24T13:35:03.318Z,53.00
2018-04-24T13:37:30.813Z,53.30
2018-04-24T13:39:58.277Z,53.10
2018-04-24T13:42:25.879Z,52.60
2018-04-24T13:44:54.073Z,52.50
2018-04-24T13:47:21.526Z,52.40
2018-04-24T13:49:48.960Z,52.70
2018-04-24T13:52:17.162Z,52.40
2018-04-24T13:54:44.621Z,52.40
2018-04-24T13:57:12.095Z,51.60
2018-04-24T13:59:39.530Z,51.30
2018-04-24T14:02:06.993Z,51.20
2018-04-24T14:04:34.434Z,51.30
2018-04-24T14:07:01.877Z,51.80
2018-04-24T14:09:29.338Z,51.50
2018-04-24T14:11:56.782Z,51.00
2018-04-24T14:14:24.989Z,51.50
2018-04-24T14:16:52.442Z,51.40
2018-04-24T14:19:19.880Z,51.70
2018-04-24T14:21:47.379Z,51.50
2018-04-24T14:24:15.539Z,50.50
2018-04-24T14:26:42.971Z,50.50
2018-04-24T14:29:10.417Z,50.10
2018-04-24T14:31:37.874Z,48.50
2018-04-24T14:34:05.313Z,47.00
2018-04-24T14:36:33.524Z,45.50
2018-04-24T14:39:01.528Z,45.40
2018-04-24T14:41:28.981Z,44.20
2018-04-24T14:43:56.434Z,43.80
2018-04-24T14:46:23.890Z,43.80
2018-04-24T14:48:51.336Z,43.70
2018-04-24T14:51:18.780Z,43.90
2018-04-24T14:53:46.238Z,42.70
2018-04-24T14:56:13.688Z,42.20
2018-04-24T14:58:41.129Z,40.40
2018-04-24T15:01:08.583Z,40.50
2018-04-24T15:03:36.023Z,40.50
2018-04-24T15:06:03.457Z,40.00
2018-04-24T15:08:31.688Z,39.90
2018-04-24T15:10:59.127Z,39.90
2018-04-24T15:13:26.588Z,40.20
2018-04-24T15:15:54.051Z,41.80
2018-04-24T15:18:21.492Z,41.70
2018-04-24T15:20:48.948Z,42.10
2018-04-24T15:23:17.316Z,42.30
2018-04-24T15:25:45.050Z,42.70
2018-04-24T15:28:12.575Z,43.20
2018-04-24T15:30:39.952Z,42.90
2018-04-24T15:33:07.389Z,43.30
2018-04-24T15:35:34.845Z,43.70
2018-04-24T15:38:02.309Z,43.30
2018-04-24T15:40:29.749Z,43.20
2018-04-24T15:42:57.198Z,44.10
2018-04-24T15:45:24.654Z,44.10
2018-04-24T15:47:52.101Z,44.10
2018-04-24T15:50:19.568Z,44.60
2018-04-24T15:52:47.036Z,44.60
2018-04-24T15:55:14.464Z,44.70
2018-04-24T15:57:41.902Z,44.70
2018-04-24T16:00:09.377Z,44.80
2018-04-24T16:02:36.817Z,44.30
2018-04-24T16:05:04.253Z,44.80
2018-04-24T16:07:31.722Z,45.20
2018-04-24T16:09:59.154Z,45.30
2018-04-24T16:12:27.395Z,44.40
2018-04-24T16:14:54.860Z,44.30
2018-04-24T16:17:22.310Z,44.00
2018-04-24T16:19:49.755Z,42.30
2018-04-24T16:22:17.202Z,41.10
2018-04-24T16:24:44.653Z,41.00
2018-04-24T16:27:12.177Z,41.50
2018-04-24T16:29:39.578Z,41.70
2018-04-24T16:32:06.986Z,42.10
2018-04-24T16:34:34.441Z,42.80
2018-04-24T16:37:01.889Z,43.40
2018-04-24T16:39:29.334Z,44.10
2018-04-24T16:41:57.563Z,45.20
2018-04-24T16:44:25.020Z,45.20
2018-04-24T16:46:52.455Z,45.60
2018-04-24T16:49:19.912Z,45.20
2018-04-24T16:51:47.365Z,45.40
2018-04-24T16:54:14.812Z,45.60
2018-04-24T16:56:42.297Z,45.60
2018-04-24T16:59:09.731Z,46.00
2018-04-24T17:01:37.174Z,46.40
2018-04-24T17:04:04.635Z,46.70
2018-04-24T17:06:32.077Z,47.00
2018-04-24T17:08:59.516Z,47.50
2018-04-24T17:11:27.771Z,48.10
2018-04-24T17:13:55.192Z,48.00
2018-04-24T17:16:22.625Z,48.60
2018-04-24T17:18:50.073Z,49.00
2018-04-24T17:21:17.512Z,49.60
2018-04-24T17:23:45.722Z,50.40
2018-04-24T17:26:13.186Z,50.40
2018-04-24T17:28:40.637Z,50.80
2018-04-24T17:31:08.073Z,51.20
2018-04-24T17:33:35.539Z,51.50
2018-04-24T17:36:02.980Z,51.80
2018-04-24T17:38:30.434Z,52.20
2018-04-24T17:40:57.967Z,52.50
2018-04-24T17:43:25.334Z,52.80
2018-04-24T17:45:53.646Z,53.40
2018-04-24T17:48:21.107Z,53.40
2018-04-24T17:50:48.543Z,53.90
2018-04-24T17:53:15.981Z,54.30
2018-04-24T17:55:43.436Z,54.70
2018-04-24T17:58:10.876Z,54.90
2018-04-24T18:00:39.076Z,55.70
2018-04-24T18:03:06.537Z,55.60
2018-04-24T18:05:33.974Z,55.90
2018-04-24T18:08:01.413Z,56.20
2018-04-24T18:10:29.641Z,56.60
2018-04-24T18:12:57.090Z,56.60
2018-04-24T18:15:24.536Z,56.80
2018-04-24T18:17:51.996Z,57.00
2018-04-24T18:20:19.431Z,57.40
2018-04-24T18:22:46.901Z,57.60
2018-04-24T18:25:14.352Z,57.90
2018-04-24T18:27:41.810Z,58.00
2018-04-24T18:30:09.269Z,58.40
2018-04-24T18:32:36.722Z,58.60
2018-04-24T18:35:04.158Z,58.90
2018-04-24T18:37:32.386Z,59.30
2018-04-24T18:39:59.838Z,59.20
2018-04-24T18:42:27.272Z,59.40
2018-04-24T18:44:54.764Z,59.50
2018-04-24T18:47:22.201Z,59.70
2018-04-24T18:49:49.634Z,59.70
2018-04-24T18:52:17.092Z,59.70
2018-04-24T18:54:44.559Z,59.90
2018-04-24T18:57:12.014Z,60.00
2018-04-24T18:59:39.476Z,60.10
2018-04-24T19:02:06.921Z,60.10
2018-04-24T19:04:34.370Z,60.30
2018-04-24T19:07:01.834Z,60.40
2018-04-24T19:09:29.278Z,60.60
2018-04-24T19:11:56.740Z,60.70
2018-04-24T19:14:24.204Z,60.80
2018-04-24T19:16:51.633Z,61.10
2018-04-24T19:19:24.768Z,61.20
2018-04-24T19:21:52.229Z,61.20
2018-04-24T19:24:25.345Z,61.30
2018-04-24T19:26:53.562Z,61.50
2018-04-24T19:29:21.014Z,61.50
2018-04-24T19:31:54.148Z,61.40
2018-04-24T19:34:21.594Z,61.50
2018-04-24T19:36:49.031Z,61.70
2018-04-24T19:42:16.278Z,61.60
2018-04-24T19:44:43.712Z,61.90
2018-04-24T19:47:11.192Z,62.10
2018-04-24T19:49:44.254Z,62.20
2018-04-24T19:52:11.702Z,62.20
2018-04-24T19:54:45.529Z,62.40
2018-04-24T19:57:12.960Z,62.30
2018-04-24T19:59:40.411Z,62.50
2018-04-24T20:02:08.639Z,62.70
2018-04-24T20:04:36.072Z,62.70
2018-04-24T20:07:03.530Z,62.80
2018-04-24T20:09:31.165Z,62.80
2018-04-24T20:11:58.632Z,63.00
2018-04-24T20:14:26.077Z,63.10
2018-04-24T20:16:53.518Z,63.10
2018-04-24T20:19:21.744Z,63.00
2018-04-24T20:21:50.236Z,63.00
2018-04-24T20:24:17.685Z,63.10
2018-04-24T20:26:45.166Z,63.00
2018-04-24T20:29:12.609Z,63.10
2018-04-24T20:31:40.055Z,63.70
2018-04-24T20:34:07.539Z,63.10
2018-04-24T20:36:34.987Z,63.70
2018-04-24T20:39:02.423Z,63.20
2018-04-24T20:41:29.886Z,63.00
2018-04-24T20:43:57.337Z,63.10
2018-04-24T20:46:24.782Z,63.40
2018-04-24T20:48:52.257Z,63.60
2018-04-24T20:51:19.706Z,63.80
2018-04-24T20:53:47.154Z,63.80
2018-04-24T20:56:14.605Z,63.80
2018-04-24T20:58:42.041Z,63.80
2018-04-24T21:01:09.506Z,63.90
2018-04-24T21:03:36.945Z,64.00
2018-04-24T21:06:04.459Z,64.00
2018-04-24T21:08:31.912Z,63.90
2018-04-24T21:10:59.398Z,63.90
2018-04-24T21:13:27.597Z,64.10
2018-04-24T21:15:55.065Z,64.10
2018-04-24T21:18:22.511Z,64.10
2018-04-24T21:20:49.956Z,64.10
2018-04-24T21:23:17.402Z,64.30
2018-04-24T21:25:44.837Z,64.20
2018-04-24T21:28:13.156Z,64.40
2018-04-24T21:30:40.596Z,64.40
2018-04-24T21:33:08.045Z,64.50
2018-04-24T21:35:35.503Z,64.60
2018-04-24T21:38:02.958Z,64.60
2018-04-24T21:40:30.406Z,64.70
2018-04-24T21:42:57.885Z,64.90
2018-04-24T21:45:25.317Z,65.10
2018-04-24T21:47:52.772Z,65.40
2018-04-24T21:50:20.987Z,66.30
2018-04-24T21:52:48.467Z,65.60
2018-04-24T21:55:15.910Z,65.60
2018-04-24T21:57:43.356Z,65.80
2018-04-24T22:00:10.827Z,65.90
2018-04-24T22:02:38.263Z,66.10
2018-04-24T22:05:05.724Z,66.40
2018-04-24T22:07:33.205Z,66.50
2018-04-24T22:10:00.636Z,66.70
2018-04-24T22:12:28.080Z,67.40
2018-04-24T22:14:56.304Z,66.90
2018-04-24T22:17:24.500Z,66.90
2018-04-24T22:19:51.953Z,66.90
2018-04-24T22:22:19.418Z,67.10
2018-04-24T22:24:46.861Z,67.30
2018-04-24T22:27:14.308Z,67.40
2018-04-24T22:29:41.766Z,67.30
2018-04-24T22:32:09.256Z,67.30
2018-04-24T22:34:36.700Z,67.30
2018-04-24T22:37:04.142Z,67.30
2018-04-24T22:39:31.601Z,67.40
2018-04-24T22:41:59.049Z,67.40
2018-04-24T22:44:26.521Z,67.40
2018-04-24T22:46:53.969Z,67.40
2018-04-24T22:49:21.414Z,67.60
2018-04-24T22:51:48.895Z,67.60
2018-04-24T22:54:16.348Z,67.70
2018-04-24T22:56:43.800Z,68.00
2018-04-24T22:59:11.268Z,68.00
2018-04-24T23:01:38.717Z,68.20
2018-04-24T23:04:06.176Z,68.30
2018-04-24T23:06:34.414Z,68.50
2018-04-24T23:09:02.621Z,68.50
2018-04-24T23:11:42.022Z,68.60
2018-04-24T23:14:22.064Z,69.30
2018-04-24T23:17:02.107Z,68.90
2018-04-24T23:19:41.316Z,68.90
2018-04-24T23:22:08.783Z,68.90
2018-04-24T23:24:36.229Z,69.00
2018-04-24T23:27:03.698Z,69.20
2018-04-24T23:29:31.129Z,69.30
2018-04-24T23:31:58.572Z,69.30
2018-04-24T23:34:26.034Z,69.30
2018-04-24T23:36:53.474Z,69.50
2018-04-24T23:39:20.945Z,69.50
2018-04-24T23:41:48.392Z,69.50
2018-04-24T23:44:15.842Z,69.60
2018-04-24T23:46:43.307Z,69.80
2018-04-24T23:49:10.962Z,70.00
2018-04-24T23:51:38.517Z,70.00
2018-04-24T23:54:05.897Z,70.00
2018-04-24T23:56:36.093Z,70.00
2018-04-24T23:59:03.549Z,70.20
